createdAt,value
2017-12-04T00:00:47.054Z,0
2017-12-04T00:01:47.711Z,0
2017-12-04T00:02:48.369Z,0
2017-12-04T00:03:49.027Z,0
2017-12-04T00:04:49.684Z,0
2017-12-04T00:05:50.343Z,0
2017-12-04T00:06:51.001Z,0
2017-12-04T00:07:51.658Z,0
2017-12-04T00:08:52.320Z,0
2017-12-04T00:09:53.011Z,0
2017-12-04T00:10:53.670Z,0
2017-12-04T00:11:54.328Z,0
2017-12-04T00:12:54.986Z,0
2017-12-04T00:13:55.644Z,0
2017-12-04T00:14:56.303Z,0
2017-12-04T00:15:56.960Z,0
2017-12-04T00:16:57.618Z,0
2017-12-04T00:17:58.277Z,0
2017-12-04T00:18:58.935Z,0
2017-12-04T00:19:59.593Z,0
2017-12-04T00:21:00.252Z,0
2017-12-04T00:22:00.910Z,0
2017-12-04T00:23:01.568Z,0
2017-12-04T00:24:02.229Z,0
2017-12-04T00:25:02.887Z,0
2017-12-04T00:26:03.547Z,0
2017-12-04T00:27:04.207Z,0
2017-12-04T00:28:04.867Z,0
2017-12-04T00:29:05.526Z,0
2017-12-04T00:30:06.185Z,0
2017-12-04T00:31:06.845Z,0
2017-12-04T00:32:07.500Z,0
2017-12-04T00:33:08.161Z,0
2017-12-04T00:34:08.819Z,0
2017-12-04T00:35:09.476Z,0
2017-12-04T00:36:10.170Z,0
2017-12-04T00:37:10.830Z,0
2017-12-04T00:38:11.486Z,0
2017-12-04T00:39:12.146Z,0
2017-12-04T00:40:12.805Z,0
2017-12-04T00:41:13.462Z,0
2017-12-04T00:42:14.121Z,0
2017-12-04T00:43:14.779Z,0
2017-12-04T00:44:15.437Z,0
2017-12-04T00:45:16.096Z,0
2017-12-04T00:46:16.754Z,0
2017-12-04T00:47:17.412Z,0
2017-12-04T00:48:18.070Z,0
2017-12-04T00:49:18.728Z,0
2017-12-04T00:50:19.388Z,0
2017-12-04T00:51:20.045Z,0
2017-12-04T00:52:20.708Z,0
2017-12-04T00:53:21.401Z,0
2017-12-04T00:54:22.093Z,0
2017-12-04T00:55:22.752Z,0
2017-12-04T00:56:23.412Z,0
2017-12-04T00:57:24.071Z,0
2017-12-04T00:58:24.731Z,0
2017-12-04T00:59:25.388Z,0
2017-12-04T01:00:26.046Z,0
2017-12-04T01:01:26.753Z,0
2017-12-04T01:02:27.412Z,0
2017-12-04T01:03:28.070Z,0
2017-12-04T01:04:28.728Z,0
2017-12-04T01:05:29.387Z,0
2017-12-04T01:06:30.044Z,0
2017-12-04T01:07:30.703Z,0
2017-12-04T01:08:31.362Z,0
2017-12-04T01:09:32.022Z,0
2017-12-04T01:10:32.683Z,0
2017-12-04T01:11:33.343Z,0
2017-12-04T01:12:34.004Z,0
2017-12-04T01:13:34.663Z,0
2017-12-04T01:14:35.323Z,0
2017-12-04T01:15:35.983Z,0
2017-12-04T01:16:36.678Z,0
2017-12-04T01:17:37.299Z,0
2017-12-04T01:18:37.958Z,0
2017-12-04T01:19:38.654Z,0
2017-12-04T01:20:39.314Z,0
2017-12-04T01:21:39.973Z,0
2017-12-04T01:22:40.631Z,0
2017-12-04T01:23:41.288Z,0
2017-12-04T01:24:41.947Z,0
2017-12-04T01:25:42.606Z,0
2017-12-04T01:26:43.264Z,0
2017-12-04T01:27:43.923Z,0
2017-12-04T01:28:44.618Z,0
2017-12-04T01:29:45.276Z,0
2017-12-04T01:30:45.934Z,0
2017-12-04T01:31:46.593Z,0
2017-12-04T01:32:47.289Z,0
2017-12-04T01:33:47.948Z,0
2017-12-04T01:34:48.609Z,0
2017-12-04T01:35:49.303Z,0
2017-12-04T01:36:49.964Z,0
2017-12-04T01:37:50.660Z,0
2017-12-04T01:38:51.321Z,0
2017-12-04T01:39:51.981Z,0
2017-12-04T01:40:52.639Z,0
2017-12-04T01:41:53.295Z,0
2017-12-04T01:42:53.956Z,0
2017-12-04T01:43:54.615Z,0
2017-12-04T01:44:55.273Z,0
2017-12-04T01:45:55.932Z,0
2017-12-04T01:46:56.590Z,0
2017-12-04T01:47:57.250Z,0
2017-12-04T01:48:57.908Z,0
2017-12-04T01:49:58.568Z,0
2017-12-04T01:50:59.262Z,0
2017-12-04T01:51:59.924Z,0
2017-12-04T01:53:00.583Z,0
2017-12-04T01:54:01.276Z,0
2017-12-04T01:55:01.936Z,0
2017-12-04T01:56:02.596Z,0
2017-12-04T01:57:03.258Z,0
2017-12-04T01:58:03.914Z,0
2017-12-04T01:59:04.612Z,0
2017-12-04T02:00:05.269Z,0
2017-12-04T02:01:05.938Z,0
2017-12-04T02:02:06.587Z,0
2017-12-04T02:03:07.245Z,0
2017-12-04T02:04:07.904Z,0
2017-12-04T02:05:08.563Z,0
2017-12-04T02:06:09.221Z,0
2017-12-04T02:07:09.881Z,0
2017-12-04T02:08:10.541Z,0
2017-12-04T02:09:11.202Z,0
2017-12-04T02:10:11.862Z,0
2017-12-04T02:11:12.521Z,0
2017-12-04T02:12:13.182Z,0
2017-12-04T02:13:13.840Z,0
2017-12-04T02:14:14.500Z,0
2017-12-04T02:15:15.158Z,0
2017-12-04T02:16:15.818Z,0
2017-12-04T02:17:16.477Z,0
2017-12-04T02:18:17.135Z,0
2017-12-04T02:19:17.795Z,0
2017-12-04T02:20:18.454Z,0
2017-12-04T02:21:19.112Z,0
2017-12-04T02:22:19.783Z,0
2017-12-04T02:23:20.430Z,0
2017-12-04T02:24:21.091Z,0
2017-12-04T02:25:21.786Z,0
2017-12-04T02:26:22.445Z,0
2017-12-04T02:27:23.354Z,0
2017-12-04T02:28:24.013Z,0
2017-12-04T02:29:24.672Z,0
2017-12-04T02:30:25.331Z,0
2017-12-04T02:31:25.990Z,0
2017-12-04T02:32:26.649Z,0
2017-12-04T02:33:27.308Z,0
2017-12-04T02:34:27.977Z,0
2017-12-04T02:35:28.629Z,0
2017-12-04T02:36:29.288Z,0
2017-12-04T02:37:29.957Z,0
2017-12-04T02:38:30.611Z,0
2017-12-04T02:39:31.305Z,0
2017-12-04T02:40:31.965Z,0
2017-12-04T02:41:32.628Z,0
2017-12-04T02:42:33.337Z,0
2017-12-04T02:43:33.996Z,0
2017-12-04T02:44:34.656Z,0
2017-12-04T02:45:35.316Z,0
2017-12-04T02:46:35.976Z,0
2017-12-04T02:47:36.675Z,0
2017-12-04T02:48:37.332Z,0
2017-12-04T02:49:37.992Z,0
2017-12-04T02:50:38.686Z,0
2017-12-04T02:51:39.345Z,0
2017-12-04T02:52:40.005Z,0
2017-12-04T02:53:40.664Z,0
2017-12-04T02:54:41.326Z,0
2017-12-04T02:55:41.985Z,0
2017-12-04T02:56:42.644Z,0
2017-12-04T02:57:43.303Z,0
2017-12-04T02:58:43.961Z,0
2017-12-04T02:59:44.620Z,0
2017-12-04T03:00:45.278Z,0
2017-12-04T03:01:45.936Z,0
2017-12-04T03:02:46.595Z,0
2017-12-04T03:03:47.254Z,0
2017-12-04T03:04:47.912Z,0
2017-12-04T03:05:48.571Z,0
2017-12-04T03:06:49.231Z,0
2017-12-04T03:07:49.894Z,0
2017-12-04T03:08:50.547Z,0
2017-12-04T03:09:51.206Z,0
2017-12-04T03:10:51.865Z,0
2017-12-04T03:11:52.524Z,0
2017-12-04T03:12:53.183Z,0
2017-12-04T03:13:53.842Z,0
2017-12-04T03:14:54.501Z,0
2017-12-04T03:15:55.162Z,0
2017-12-04T03:16:55.821Z,0
2017-12-04T03:17:56.482Z,0
2017-12-04T03:18:57.144Z,0
2017-12-04T03:19:57.805Z,0
2017-12-04T03:20:58.467Z,0
2017-12-04T03:21:59.121Z,0
2017-12-04T03:22:59.819Z,0
2017-12-04T03:24:00.478Z,0
2017-12-04T03:25:01.139Z,0
2017-12-04T03:26:01.798Z,0
2017-12-04T03:27:02.457Z,0
2017-12-04T03:28:03.116Z,0
2017-12-04T03:29:03.775Z,0
2017-12-04T03:30:04.434Z,0
2017-12-04T03:31:05.093Z,0
2017-12-04T03:32:05.752Z,0
2017-12-04T03:33:06.412Z,0
2017-12-04T03:34:07.070Z,0
2017-12-04T03:35:07.729Z,0
2017-12-04T03:36:08.389Z,0
2017-12-04T03:37:09.049Z,0
2017-12-04T03:38:09.709Z,0
2017-12-04T03:39:10.370Z,0
2017-12-04T03:40:11.028Z,0
2017-12-04T03:41:11.687Z,0
2017-12-04T03:42:12.347Z,0
2017-12-04T03:43:13.005Z,0
2017-12-04T03:44:13.664Z,0
2017-12-04T03:45:14.360Z,0
2017-12-04T03:46:15.019Z,0
2017-12-04T03:47:15.680Z,0
2017-12-04T03:48:16.338Z,0
2017-12-04T03:49:16.998Z,0
2017-12-04T03:50:17.656Z,0
2017-12-04T03:51:18.317Z,0
2017-12-04T03:52:18.977Z,0
2017-12-04T03:53:19.636Z,0
2017-12-04T03:54:20.293Z,0
2017-12-04T03:55:20.951Z,0
2017-12-04T03:56:21.645Z,0
2017-12-04T03:57:22.304Z,0
2017-12-04T03:58:22.999Z,0
2017-12-04T03:59:23.659Z,0
2017-12-04T04:00:24.324Z,0
2017-12-04T04:01:24.978Z,0
2017-12-04T04:02:25.637Z,0
2017-12-04T04:03:26.296Z,0
2017-12-04T04:04:26.955Z,0
2017-12-04T04:05:27.615Z,0
2017-12-04T04:06:28.274Z,0
2017-12-04T04:07:28.933Z,0
2017-12-04T04:08:29.590Z,0
2017-12-04T04:09:30.249Z,0
2017-12-04T04:10:30.908Z,0
2017-12-04T04:11:31.568Z,0
2017-12-04T04:12:32.227Z,0
2017-12-04T04:13:32.886Z,0
2017-12-04T04:14:33.544Z,0
2017-12-04T04:15:34.239Z,0
2017-12-04T04:16:34.896Z,0
2017-12-04T04:17:35.554Z,0
2017-12-04T04:18:36.214Z,0
2017-12-04T04:19:36.874Z,0
2017-12-04T04:20:37.532Z,0
2017-12-04T04:21:38.194Z,0
2017-12-04T04:22:38.851Z,0
2017-12-04T04:23:39.547Z,0
2017-12-04T04:24:40.204Z,0
2017-12-04T04:25:40.862Z,0
2017-12-04T04:26:41.520Z,0
2017-12-04T04:27:42.180Z,0
2017-12-04T04:28:42.873Z,0
2017-12-04T04:29:43.533Z,0
2017-12-04T04:30:44.191Z,0
2017-12-04T04:31:44.853Z,0
2017-12-04T04:32:45.593Z,0
2017-12-04T04:33:46.180Z,0
2017-12-04T04:34:46.839Z,0
2017-12-04T04:35:47.499Z,0
2017-12-04T04:36:48.160Z,0
2017-12-04T04:37:48.820Z,0
2017-12-04T04:38:49.481Z,0
2017-12-04T04:39:50.141Z,0
2017-12-04T04:40:50.800Z,0
2017-12-04T04:41:51.461Z,0
2017-12-04T04:42:52.119Z,0
2017-12-04T04:43:52.779Z,0
2017-12-04T04:44:53.436Z,0
2017-12-04T04:45:54.095Z,0
2017-12-04T04:46:54.755Z,0
2017-12-04T04:47:55.413Z,0
2017-12-04T04:48:56.071Z,0
2017-12-04T04:49:56.730Z,0
2017-12-04T04:50:57.390Z,0
2017-12-04T04:51:58.049Z,0
2017-12-04T04:52:58.709Z,0
2017-12-04T04:53:59.367Z,0
2017-12-04T04:55:00.027Z,0
2017-12-04T04:56:00.687Z,0
2017-12-04T04:57:01.348Z,0
2017-12-04T04:58:02.008Z,0
2017-12-04T04:59:02.715Z,0
2017-12-04T05:00:03.395Z,0
2017-12-04T05:01:04.034Z,0
2017-12-04T05:02:04.693Z,0
2017-12-04T05:03:05.352Z,0
2017-12-04T05:04:06.010Z,0
2017-12-04T05:05:06.669Z,0
2017-12-04T05:06:07.329Z,0
2017-12-04T05:07:07.990Z,0
2017-12-04T05:08:08.685Z,0
2017-12-04T05:09:09.399Z,0
2017-12-04T05:10:10.005Z,0
2017-12-04T05:11:10.664Z,0
2017-12-04T05:12:11.324Z,0
2017-12-04T05:13:11.986Z,0
2017-12-04T05:14:12.646Z,0
2017-12-04T05:15:13.308Z,0
2017-12-04T05:16:13.966Z,0
2017-12-04T05:17:14.625Z,0
2017-12-04T05:18:15.286Z,0
2017-12-04T05:19:15.944Z,0
2017-12-04T05:20:16.602Z,0
2017-12-04T05:21:17.259Z,0
2017-12-04T05:22:17.920Z,0
2017-12-04T05:23:18.577Z,0
2017-12-04T05:24:19.235Z,0
2017-12-04T05:25:19.895Z,0
2017-12-04T05:26:20.553Z,0
2017-12-04T05:27:21.214Z,0
2017-12-04T05:28:21.873Z,0
2017-12-04T05:29:22.533Z,0
2017-12-04T05:30:23.194Z,0
2017-12-04T05:31:23.853Z,0
2017-12-04T05:32:24.512Z,0
2017-12-04T05:33:25.172Z,0
2017-12-04T05:34:25.830Z,0
2017-12-04T05:35:26.490Z,0
2017-12-04T05:36:27.148Z,0
2017-12-04T05:37:27.807Z,0
2017-12-04T05:38:28.466Z,0
2017-12-04T05:39:29.125Z,0
2017-12-04T05:40:29.783Z,0
2017-12-04T05:41:30.443Z,0
2017-12-04T05:42:31.103Z,0
2017-12-04T05:43:31.761Z,0
2017-12-04T05:44:32.419Z,0
2017-12-04T05:45:33.080Z,0
2017-12-04T05:46:33.737Z,0
2017-12-04T05:47:34.396Z,0
2017-12-04T05:48:35.058Z,0
2017-12-04T05:49:35.752Z,0
2017-12-04T05:50:36.410Z,0
2017-12-04T05:51:37.070Z,0
2017-12-04T05:52:37.729Z,0
2017-12-04T05:53:38.386Z,0
2017-12-04T05:54:39.046Z,0
2017-12-04T05:55:39.705Z,0
2017-12-04T05:56:40.364Z,0
2017-12-04T05:57:41.023Z,0
2017-12-04T05:58:41.682Z,0
2017-12-04T05:59:42.341Z,0
2017-12-04T06:00:43.001Z,0
2017-12-04T06:01:43.661Z,0
2017-12-04T06:02:44.322Z,0
2017-12-04T06:03:44.982Z,0
2017-12-04T06:04:45.651Z,0
2017-12-04T06:05:46.303Z,0
2017-12-04T06:06:46.963Z,0
2017-12-04T06:07:47.623Z,0
2017-12-04T06:08:48.282Z,0
2017-12-04T06:09:48.942Z,0
2017-12-04T06:10:49.602Z,0
2017-12-04T06:11:50.260Z,0
2017-12-04T06:12:50.919Z,0
2017-12-04T06:13:51.579Z,0
2017-12-04T06:14:52.239Z,0
2017-12-04T06:15:52.900Z,0
2017-12-04T06:16:53.558Z,0
2017-12-04T06:17:54.216Z,0
2017-12-04T06:18:54.876Z,0
2017-12-04T06:19:55.536Z,0
2017-12-04T06:20:56.196Z,0
2017-12-04T06:21:56.855Z,0
2017-12-04T06:22:57.515Z,4
2017-12-04T06:23:58.175Z,4
2017-12-04T06:24:58.832Z,4
2017-12-04T06:25:59.492Z,4
2017-12-04T06:27:00.150Z,4
2017-12-04T06:28:00.811Z,4
2017-12-04T06:29:01.469Z,4
2017-12-04T06:30:02.128Z,4
2017-12-04T06:31:02.788Z,4
2017-12-04T06:32:03.447Z,4
2017-12-04T06:33:04.106Z,8
2017-12-04T06:34:04.765Z,4
2017-12-04T06:35:05.423Z,8
2017-12-04T06:36:06.080Z,4
2017-12-04T06:37:06.746Z,8
2017-12-04T06:38:07.399Z,8
2017-12-04T06:39:08.061Z,12
2017-12-04T06:40:08.757Z,12
2017-12-04T06:41:09.417Z,12
2017-12-04T06:42:10.077Z,12
2017-12-04T06:43:10.735Z,16
2017-12-04T06:44:11.396Z,16
2017-12-04T06:45:12.057Z,20
2017-12-04T06:46:12.720Z,20
2017-12-04T06:47:13.381Z,28
2017-12-04T06:48:14.043Z,32
2017-12-04T06:49:14.705Z,32
2017-12-04T06:50:15.365Z,40
2017-12-04T06:51:16.024Z,44
2017-12-04T06:52:16.683Z,52
2017-12-04T06:53:17.344Z,60
2017-12-04T06:54:18.007Z,76
2017-12-04T06:55:18.668Z,88
2017-12-04T06:56:19.329Z,104
2017-12-04T06:57:19.991Z,112
2017-12-04T06:58:20.650Z,124
2017-12-04T06:59:21.312Z,136
2017-12-04T07:00:21.972Z,148
2017-12-04T07:01:22.633Z,164
2017-12-04T07:02:23.295Z,180
2017-12-04T07:03:23.958Z,196
2017-12-04T07:04:24.622Z,212
2017-12-04T07:05:25.284Z,232
2017-12-04T07:06:25.945Z,252
2017-12-04T07:07:26.606Z,284
2017-12-04T07:08:27.269Z,312
2017-12-04T07:09:27.932Z,332
2017-12-04T07:10:28.596Z,336
2017-12-04T07:11:29.255Z,344
2017-12-04T07:12:29.918Z,352
2017-12-04T07:13:30.581Z,360
2017-12-04T07:14:31.252Z,360
2017-12-04T07:15:31.947Z,356
2017-12-04T07:16:32.611Z,368
2017-12-04T07:17:33.287Z,396
2017-12-04T07:18:33.970Z,428
2017-12-04T07:19:34.630Z,432
2017-12-04T07:20:35.293Z,440
2017-12-04T07:21:35.956Z,420
2017-12-04T07:22:36.625Z,408
2017-12-04T07:23:37.283Z,428
2017-12-04T07:24:37.946Z,468
2017-12-04T07:25:38.657Z,488
2017-12-04T07:26:39.322Z,520
2017-12-04T07:27:39.986Z,552
2017-12-04T07:28:40.648Z,584
2017-12-04T07:29:41.346Z,636
2017-12-04T07:30:42.008Z,684
2017-12-04T07:31:42.673Z,728
2017-12-04T07:32:43.336Z,772
2017-12-04T07:33:44.000Z,808
2017-12-04T07:34:44.661Z,856
2017-12-04T07:35:45.402Z,880
2017-12-04T07:36:46.017Z,876
2017-12-04T07:37:46.678Z,864
2017-12-04T07:38:47.339Z,852
2017-12-04T07:39:48.001Z,864
2017-12-04T07:40:48.667Z,892
2017-12-04T07:41:49.330Z,952
2017-12-04T07:42:50.030Z,1044
2017-12-04T07:43:50.694Z,1120
2017-12-04T07:44:51.357Z,1168
2017-12-04T07:45:52.070Z,1244
2017-12-04T07:46:52.733Z,1248
2017-12-04T07:47:53.402Z,1124
2017-12-04T07:48:54.067Z,1080
2017-12-04T07:49:54.728Z,1148
2017-12-04T07:50:55.391Z,1168
2017-12-04T07:51:56.055Z,1088
2017-12-04T07:52:56.721Z,940
2017-12-04T07:53:57.382Z,868
2017-12-04T07:54:58.080Z,860
2017-12-04T07:55:58.744Z,848
2017-12-04T07:56:59.406Z,848
2017-12-04T07:58:00.068Z,888
2017-12-04T07:59:00.729Z,952
2017-12-04T08:00:01.400Z,1052
2017-12-04T08:01:02.110Z,1164
2017-12-04T08:02:02.775Z,1256
2017-12-04T08:03:03.439Z,1380
2017-12-04T08:04:04.104Z,1512
2017-12-04T08:05:04.767Z,1632
2017-12-04T08:06:05.433Z,1716
2017-12-04T08:07:06.098Z,1760
2017-12-04T08:08:06.799Z,1732
2017-12-04T08:09:07.499Z,1672
2017-12-04T08:10:08.163Z,1716
2017-12-04T08:11:08.825Z,1796
2017-12-04T08:12:09.489Z,1860
2017-12-04T08:13:10.154Z,1936
2017-12-04T08:14:10.817Z,2004
2017-12-04T08:15:11.480Z,2060
2017-12-04T08:16:12.142Z,2120
2017-12-04T08:17:12.805Z,2092
2017-12-04T08:18:13.472Z,2092
2017-12-04T08:19:14.134Z,1964
2017-12-04T08:20:14.795Z,1756
2017-12-04T08:21:15.460Z,1672
2017-12-04T08:22:16.123Z,1716
2017-12-04T08:23:16.787Z,1816
2017-12-04T08:24:17.449Z,1904
2017-12-04T08:25:18.113Z,1868
2017-12-04T08:26:18.776Z,1820
2017-12-04T08:27:19.439Z,1732
2017-12-04T08:28:20.104Z,1676
2017-12-04T08:29:20.769Z,1772
2017-12-04T08:30:21.432Z,1824
2017-12-04T08:31:22.098Z,1800
2017-12-04T08:32:22.761Z,1736
2017-12-04T08:33:23.425Z,1556
2017-12-04T08:34:24.086Z,1424
2017-12-04T08:35:24.750Z,1348
2017-12-04T08:36:25.463Z,1272
2017-12-04T08:37:26.127Z,1280
2017-12-04T08:38:26.789Z,1340
2017-12-04T08:39:27.453Z,1416
2017-12-04T08:40:28.118Z,1516
2017-12-04T08:41:28.818Z,1532
2017-12-04T08:42:29.486Z,1544
2017-12-04T08:43:30.144Z,1560
2017-12-04T08:44:30.808Z,1620
2017-12-04T08:45:31.471Z,1688
2017-12-04T08:46:32.135Z,1708
2017-12-04T08:47:32.800Z,1664
2017-12-04T08:48:33.465Z,1652
2017-12-04T08:49:34.166Z,1636
2017-12-04T08:50:34.830Z,1640
2017-12-04T08:51:35.494Z,1640
2017-12-04T08:52:36.158Z,1612
2017-12-04T08:53:36.822Z,1568
2017-12-04T08:54:37.493Z,1528
2017-12-04T08:55:38.149Z,1488
2017-12-04T08:56:38.811Z,1456
2017-12-04T08:57:39.477Z,1432
2017-12-04T08:58:40.161Z,1424
2017-12-04T08:59:40.807Z,1392
2017-12-04T09:00:41.470Z,1368
2017-12-04T09:01:42.184Z,1384
2017-12-04T09:02:42.849Z,1444
2017-12-04T09:03:43.512Z,1524
2017-12-04T09:04:44.175Z,1596
2017-12-04T09:05:44.839Z,1608
2017-12-04T09:06:45.504Z,1588
2017-12-04T09:07:46.168Z,1624
2017-12-04T09:08:46.831Z,1652
2017-12-04T09:09:47.495Z,1640
2017-12-04T09:10:48.160Z,1588
2017-12-04T09:11:48.823Z,1596
2017-12-04T09:12:49.486Z,1604
2017-12-04T09:13:50.149Z,1544
2017-12-04T09:14:50.815Z,1508
2017-12-04T09:15:51.481Z,1544
2017-12-04T09:16:52.144Z,1500
2017-12-04T09:17:52.808Z,1512
2017-12-04T09:18:53.471Z,1524
2017-12-04T09:19:54.136Z,1428
2017-12-04T09:20:54.800Z,1432
2017-12-04T09:21:55.462Z,1444
2017-12-04T09:22:56.125Z,1484
2017-12-04T09:23:56.792Z,1700
2017-12-04T09:24:57.455Z,1884
2017-12-04T09:25:58.129Z,1948
2017-12-04T09:26:58.783Z,1812
2017-12-04T09:27:59.448Z,1528
2017-12-04T09:29:00.112Z,1332
2017-12-04T09:30:00.777Z,1304
2017-12-04T09:31:01.455Z,1292
2017-12-04T09:32:02.189Z,1312
2017-12-04T09:33:02.854Z,1320
2017-12-04T09:34:03.523Z,1376
2017-12-04T09:35:04.190Z,1592
2017-12-04T09:36:04.847Z,1880
2017-12-04T09:37:05.547Z,2100
2017-12-04T09:38:06.217Z,2228
2017-12-04T09:39:06.875Z,2196
2017-12-04T09:40:07.539Z,2164
2017-12-04T09:41:08.201Z,2180
2017-12-04T09:42:08.864Z,2100
2017-12-04T09:43:09.526Z,1872
2017-12-04T09:44:10.191Z,1656
2017-12-04T09:45:10.858Z,1640
2017-12-04T09:46:11.519Z,1684
2017-12-04T09:47:12.182Z,1724
2017-12-04T09:48:12.845Z,1820
2017-12-04T09:49:13.510Z,1940
2017-12-04T09:50:14.196Z,2112
2017-12-04T09:51:14.835Z,2172
2017-12-04T09:52:15.497Z,2096
2017-12-04T09:53:16.160Z,2136
2017-12-04T09:54:16.825Z,2176
2017-12-04T09:55:17.491Z,2092
2017-12-04T09:56:18.154Z,1900
2017-12-04T09:57:18.818Z,1876
2017-12-04T09:58:19.516Z,1928
2017-12-04T09:59:20.179Z,1836
2017-12-04T10:00:20.843Z,1892
2017-12-04T10:01:21.509Z,1872
2017-12-04T10:02:22.171Z,2000
2017-12-04T10:03:22.835Z,1976
2017-12-04T10:04:23.498Z,1896
2017-12-04T10:05:24.162Z,2112
2017-12-04T10:06:24.828Z,2096
2017-12-04T10:07:25.528Z,2160
2017-12-04T10:08:26.192Z,2116
2017-12-04T10:09:26.857Z,1904
2017-12-04T10:10:27.521Z,1884
2017-12-04T10:11:28.185Z,2024
2017-12-04T10:12:28.850Z,2104
2017-12-04T10:13:29.511Z,2240
2017-12-04T10:14:30.173Z,2264
2017-12-04T10:15:30.836Z,2268
2017-12-04T10:16:31.500Z,2260
2017-12-04T10:17:32.223Z,2152
2017-12-04T10:18:32.915Z,2148
2017-12-04T10:19:33.578Z,2360
2017-12-04T10:20:34.241Z,2120
2017-12-04T10:21:34.949Z,2188
2017-12-04T10:22:35.640Z,2732
2017-12-04T10:23:36.303Z,2560
2017-12-04T10:24:36.968Z,2744
2017-12-04T10:25:37.632Z,2532
2017-12-04T10:26:38.296Z,2252
2017-12-04T10:27:38.995Z,2200
2017-12-04T10:28:39.659Z,2052
2017-12-04T10:29:40.323Z,2068
2017-12-04T10:30:40.986Z,2612
2017-12-04T10:31:41.649Z,2712
2017-12-04T10:32:42.315Z,2764
2017-12-04T10:33:42.981Z,2860
2017-12-04T10:34:43.641Z,2868
2017-12-04T10:35:44.304Z,2944
2017-12-04T10:36:44.970Z,2848
2017-12-04T10:37:45.633Z,2544
2017-12-04T10:38:46.365Z,2252
2017-12-04T10:39:46.958Z,2056
2017-12-04T10:40:47.622Z,1924
2017-12-04T10:41:48.285Z,1600
2017-12-04T10:42:48.949Z,1388
2017-12-04T10:43:49.614Z,1280
2017-12-04T10:44:50.280Z,1252
2017-12-04T10:45:50.942Z,1388
2017-12-04T10:46:51.606Z,1736
2017-12-04T10:47:52.270Z,1824
2017-12-04T10:48:52.936Z,1900
2017-12-04T10:49:53.600Z,1840
2017-12-04T10:50:54.263Z,1852
2017-12-04T10:51:54.927Z,1948
2017-12-04T10:52:55.628Z,2228
2017-12-04T10:53:56.291Z,2508
2017-12-04T10:54:56.959Z,2396
2017-12-04T10:55:57.620Z,2264
2017-12-04T10:56:58.322Z,1980
2017-12-04T10:57:58.984Z,1864
2017-12-04T10:58:59.651Z,1888
2017-12-04T11:00:00.319Z,2024
2017-12-04T11:01:01.015Z,2332
2017-12-04T11:02:01.681Z,2548
2017-12-04T11:03:02.345Z,2444
2017-12-04T11:04:03.020Z,2268
2017-12-04T11:05:03.673Z,2256
2017-12-04T11:06:04.340Z,2204
2017-12-04T11:07:05.005Z,2096
2017-12-04T11:08:05.669Z,1800
2017-12-04T11:09:06.335Z,1592
2017-12-04T11:10:06.997Z,1680
2017-12-04T11:11:07.662Z,1660
2017-12-04T11:12:08.364Z,1788
2017-12-04T11:13:09.027Z,1968
2017-12-04T11:14:09.692Z,2052
2017-12-04T11:15:10.357Z,2460
2017-12-04T11:16:11.018Z,2928
2017-12-04T11:17:11.684Z,3076
2017-12-04T11:18:12.349Z,2856
2017-12-04T11:19:13.012Z,2892
2017-12-04T11:20:13.676Z,2864
2017-12-04T11:21:14.341Z,2648
2017-12-04T11:22:15.007Z,2596
2017-12-04T11:23:15.671Z,2640
2017-12-04T11:24:16.335Z,2448
2017-12-04T11:25:17.002Z,2256
2017-12-04T11:26:17.668Z,2224
2017-12-04T11:27:18.333Z,2264
2017-12-04T11:28:18.999Z,2516
2017-12-04T11:29:19.671Z,2720
2017-12-04T11:30:20.329Z,2524
2017-12-04T11:31:20.993Z,2376
2017-12-04T11:32:21.658Z,2292
2017-12-04T11:33:22.328Z,2380
2017-12-04T11:34:22.992Z,2256
2017-12-04T11:35:23.656Z,2116
2017-12-04T11:36:24.321Z,2164
2017-12-04T11:37:24.988Z,2120
2017-12-04T11:38:25.654Z,2100
2017-12-04T11:39:26.316Z,2052
2017-12-04T11:40:26.981Z,1996
2017-12-04T11:41:27.648Z,1872
2017-12-04T11:42:28.312Z,1888
2017-12-04T11:43:28.978Z,1720
2017-12-04T11:44:29.647Z,1572
2017-12-04T11:45:30.308Z,1808
2017-12-04T11:46:30.971Z,2088
2017-12-04T11:47:31.632Z,2092
2017-12-04T11:48:32.296Z,2152
2017-12-04T11:49:32.963Z,2176
2017-12-04T11:50:33.628Z,2172
2017-12-04T11:51:34.291Z,2480
2017-12-04T11:52:34.958Z,2676
2017-12-04T11:53:35.620Z,2516
2017-12-04T11:54:36.286Z,2428
2017-12-04T11:55:36.949Z,2300
2017-12-04T11:56:37.614Z,2340
2017-12-04T11:57:38.277Z,2436
2017-12-04T11:58:38.944Z,2244
2017-12-04T11:59:39.610Z,2124
2017-12-04T12:00:40.273Z,1848
2017-12-04T12:01:40.940Z,1924
2017-12-04T12:02:41.606Z,1764
2017-12-04T12:03:42.270Z,1472
2017-12-04T12:04:42.934Z,1240
2017-12-04T12:05:43.600Z,1116
2017-12-04T12:06:44.265Z,1104
2017-12-04T12:07:44.930Z,1152
2017-12-04T12:08:45.594Z,1324
2017-12-04T12:09:46.259Z,1644
2017-12-04T12:10:46.924Z,1816
2017-12-04T12:11:47.589Z,2016
2017-12-04T12:12:48.253Z,2040
2017-12-04T12:13:48.920Z,1864
2017-12-04T12:14:49.585Z,1892
2017-12-04T12:15:50.250Z,2132
2017-12-04T12:16:50.916Z,2476
2017-12-04T12:17:51.580Z,2752
2017-12-04T12:18:52.243Z,2976
2017-12-04T12:19:52.907Z,3292
2017-12-04T12:20:53.570Z,3720
2017-12-04T12:21:54.236Z,3332
2017-12-04T12:22:54.901Z,2788
2017-12-04T12:23:55.565Z,2708
2017-12-04T12:24:56.228Z,2860
2017-12-04T12:25:56.900Z,2896
2017-12-04T12:26:57.557Z,2664
2017-12-04T12:27:58.221Z,2616
2017-12-04T12:28:58.884Z,2792
2017-12-04T12:29:59.547Z,2868
2017-12-04T12:31:00.212Z,2580
2017-12-04T12:32:00.876Z,2260
2017-12-04T12:33:01.540Z,1988
2017-12-04T12:34:02.203Z,1744
2017-12-04T12:35:02.866Z,1748
2017-12-04T12:36:03.532Z,1788
2017-12-04T12:37:04.194Z,1748
2017-12-04T12:38:04.856Z,1812
2017-12-04T12:39:05.518Z,2168
2017-12-04T12:40:06.184Z,2408
2017-12-04T12:41:06.845Z,2336
2017-12-04T12:42:07.510Z,2288
2017-12-04T12:43:08.174Z,2320
2017-12-04T12:44:08.839Z,2316
2017-12-04T12:45:09.502Z,2224
2017-12-04T12:46:10.202Z,2260
2017-12-04T12:47:10.867Z,2344
2017-12-04T12:48:11.529Z,2376
2017-12-04T12:49:12.192Z,2372
2017-12-04T12:50:12.857Z,2524
2017-12-04T12:51:13.521Z,2632
2017-12-04T12:52:14.184Z,2616
2017-12-04T12:53:14.848Z,2420
2017-12-04T12:54:15.512Z,2140
2017-12-04T12:55:16.177Z,2008
2017-12-04T12:56:16.843Z,2052
2017-12-04T12:57:17.505Z,1972
2017-12-04T12:58:18.169Z,2116
2017-12-04T12:59:18.832Z,2256
2017-12-04T13:00:19.496Z,2440
2017-12-04T13:01:20.159Z,2612
2017-12-04T13:02:20.821Z,2720
2017-12-04T13:03:21.487Z,2804
2017-12-04T13:04:22.152Z,2812
2017-12-04T13:05:22.850Z,2900
2017-12-04T13:06:23.562Z,2916
2017-12-04T13:07:24.175Z,2716
2017-12-04T13:08:24.843Z,2340
2017-12-04T13:09:25.506Z,2272
2017-12-04T13:10:26.169Z,2460
2017-12-04T13:11:26.834Z,2884
2017-12-04T13:12:27.499Z,3048
2017-12-04T13:13:28.161Z,3080
2017-12-04T13:14:28.824Z,3220
2017-12-04T13:15:29.525Z,3292
2017-12-04T13:16:30.196Z,3140
2017-12-04T13:17:30.851Z,3144
2017-12-04T13:18:31.514Z,3268
2017-12-04T13:19:32.179Z,3344
2017-12-04T13:20:32.865Z,3260
2017-12-04T13:21:33.509Z,3132
2017-12-04T13:22:34.172Z,3000
2017-12-04T13:23:34.836Z,2844
2017-12-04T13:24:35.502Z,2592
2017-12-04T13:25:36.166Z,2368
2017-12-04T13:26:36.829Z,2016
2017-12-04T13:27:37.492Z,1748
2017-12-04T13:28:38.156Z,1644
2017-12-04T13:29:38.820Z,1652
2017-12-04T13:30:39.485Z,1720
2017-12-04T13:31:40.151Z,1792
2017-12-04T13:32:40.814Z,1744
2017-12-04T13:33:41.476Z,1560
2017-12-04T13:34:42.190Z,1540
2017-12-04T13:35:42.854Z,1444
2017-12-04T13:36:43.517Z,1436
2017-12-04T13:37:44.181Z,1588
2017-12-04T13:38:44.844Z,1740
2017-12-04T13:39:45.509Z,1828
2017-12-04T13:40:46.174Z,1900
2017-12-04T13:41:46.920Z,1972
2017-12-04T13:42:47.532Z,1980
2017-12-04T13:43:48.232Z,1900
2017-12-04T13:44:48.899Z,1852
2017-12-04T13:45:49.563Z,1832
2017-12-04T13:46:50.226Z,1780
2017-12-04T13:47:50.890Z,1688
2017-12-04T13:48:51.555Z,1600
2017-12-04T13:49:52.221Z,1528
2017-12-04T13:50:52.884Z,1448
2017-12-04T13:51:53.546Z,1436
2017-12-04T13:52:54.211Z,1400
2017-12-04T13:53:54.875Z,1400
2017-12-04T13:54:55.540Z,1424
2017-12-04T13:55:56.204Z,1412
2017-12-04T13:56:56.869Z,1372
2017-12-04T13:57:57.531Z,1328
2017-12-04T13:58:58.196Z,1244
2017-12-04T13:59:58.862Z,1164
2017-12-04T14:00:59.523Z,1100
2017-12-04T14:02:00.186Z,1068
2017-12-04T14:03:00.851Z,1016
2017-12-04T14:04:01.513Z,980
2017-12-04T14:05:02.225Z,944
2017-12-04T14:06:02.891Z,944
2017-12-04T14:07:03.552Z,940
2017-12-04T14:08:04.215Z,924
2017-12-04T14:09:04.877Z,884
2017-12-04T14:10:05.541Z,860
2017-12-04T14:11:06.208Z,824